Time;durP1;ratioP1;P1;durP2;ratioP2;P2;SDS_P1;SDS_P2;PMS_P1;PMS_P2;Temp;Humidity;BMP_temperature;BMP_pressure;BME280_temperature;BME280_humidity;BME280_pressure;Samples;Min_cycle;Max_cycle;Signal;HPM_P1;HPM_P2
2023/06/24 00:01:55;;;;;;;2.02;1.82;;;21.10;99.90;;;;;;1905875;74;21696;-80
2023/06/24 00:04:47;;;;;;;2.62;1.90;;;21.00;99.90;;;;;;1927237;74;21144;-80
2023/06/24 00:10:18;;;;;;;3.80;2.33;;;20.90;99.90;;;;;;1928283;72;22281;-80
2023/06/24 00:13:10;;;;;;;2.58;2.10;;;21.00;99.90;;;;;;1875117;75;21068;-81
2023/06/24 00:16:01;;;;;;;1.87;1.75;;;21.00;99.90;;;;;;1882860;75;21171;-80
2023/06/24 00:18:52;;;;;;;3.85;2.10;;;20.90;99.90;;;;;;1887719;75;21122;-80
2023/06/24 00:21:44;;;;;;;2.92;1.98;;;20.80;99.90;;;;;;1878434;75;21044;-81
2023/06/24 00:24:36;;;;;;;3.33;1.92;;;20.80;99.90;;;;;;1887433;75;21176;-80
2023/06/24 00:35:26;;;;;;;2.35;1.85;;;20.90;99.90;;;;;;1931809;72;22280;-80
2023/06/24 00:38:18;;;;;;;4.42;1.90;;;20.90;99.90;;;;;;1886586;75;21110;-80
2023/06/24 00:41:10;;;;;;;2.80;2.15;;;20.60;99.90;;;;;;1896340;75;21114;-80
2023/06/24 00:46:42;;;;;;;2.15;1.90;;;20.30;99.90;;;;;;1943706;72;22265;-80
2023/06/24 00:49:34;;;;;;;2.60;2.00;;;20.30;99.90;;;;;;1899810;74;21047;-80
2023/06/24 00:52:25;;;;;;;3.65;2.10;;;20.20;99.90;;;;;;1912302;75;21416;-80
2023/06/24 00:55:20;;;;;;;3.20;2.20;;;20.20;99.90;;;;;;1909482;74;21086;-80
2023/06/24 01:00:57;;;;;;;2.10;1.77;;;20.20;99.90;;;;;;1939170;72;22087;-80
2023/06/24 01:06:23;;;;;;;3.98;1.95;;;20.10;99.90;;;;;;1932781;72;22177;-81
2023/06/24 01:09:15;;;;;;;2.40;2.20;;;20.00;99.90;;;;;;1895691;75;21115;-81
2023/06/24 01:12:09;;;;;;;3.55;2.37;;;19.90;99.90;;;;;;1889808;75;21156;-81
2023/06/24 01:15:00;;;;;;;3.25;2.12;;;19.80;99.90;;;;;;1894417;75;21100;-81
2023/06/24 01:20:46;;;;;;;3.22;2.22;;;19.80;99.90;;;;;;1956558;72;22186;-80
2023/06/24 01:26:55;;;;;;;3.08;2.08;;;19.90;99.90;;;;;;1936350;72;22197;-80
2023/06/24 01:30:42;;;;;;;10.05;2.37;;;19.90;99.90;;;;;;1891596;75;21098;-80
2023/06/24 01:36:15;;;;;;;4.87;1.98;;;19.60;99.90;;;;;;1943742;72;22306;-80
2023/06/24 01:39:09;;;;;;;3.08;2.17;;;19.50;99.90;;;;;;1922722;73;21094;-80
2023/06/24 01:42:03;;;;;;;3.02;2.37;;;19.50;99.90;;;;;;1926059;73;21092;-81
2023/06/24 01:47:41;;;;;;;2.65;2.00;;;19.50;99.90;;;;;;1934857;72;22193;-82
2023/06/24 01:50:36;;;;;;;4.10;2.22;;;19.50;99.90;;;;;;1899334;75;21099;-82
2023/06/24 01:53:29;;;;;;;2.45;2.25;;;19.60;99.90;;;;;;1851061;76;21636;-82
2023/06/24 01:56:24;;;;;;;3.80;2.00;;;19.70;99.90;;;;;;1889813;75;21521;-82
2023/06/24 01:59:18;;;;;;;3.40;2.12;;;19.70;99.90;;;;;;1882839;75;21156;-82
2023/06/24 02:04:57;;;;;;;2.25;2.02;;;19.40;99.90;;;;;;1946752;72;22212;-82
2023/06/24 02:07:52;;;;;;;2.90;1.87;;;19.40;99.90;;;;;;1919349;73;21095;-82
2023/06/24 02:10:46;;;;;;;3.65;2.08;;;19.50;99.90;;;;;;1919207;73;21111;-83
2023/06/24 02:16:27;;;;;;;8.70;2.37;;;19.60;99.90;;;;;;1940291;72;22166;-82
2023/06/24 02:19:20;;;;;;;3.15;2.85;;;19.60;99.90;;;;;;1894709;75;21093;-82
2023/06/24 02:22:12;;;;;;;3.10;2.10;;;19.60;99.90;;;;;;1904017;74;21171;-82
2023/06/24 02:30:26;;;;;;;2.20;2.00;;;19.50;99.90;;;;;;1930426;72;22325;-82
2023/06/24 02:35:58;;;;;;;2.58;2.15;;;19.10;99.90;;;;;;1956802;72;22197;-82
2023/06/24 02:38:49;;;;;;;2.52;2.10;;;19.10;99.90;;;;;;1917370;73;21199;-82
2023/06/24 02:41:41;;;;;;;3.72;2.30;;;19.00;99.90;;;;;;1925023;73;21145;-82
2023/06/24 02:44:33;;;;;;;2.85;2.42;;;18.90;99.90;;;;;;1923275;73;21114;-82
2023/06/24 02:47:26;;;;;;;4.20;2.80;;;18.90;99.90;;;;;;1918150;73;21054;-82
2023/06/24 02:50:19;;;;;;;4.47;2.33;;;18.70;99.90;;;;;;1926648;73;21175;-82
2023/06/24 02:55:51;;;;;;;3.65;2.72;;;18.60;99.90;;;;;;1947375;72;22086;-82
2023/06/24 02:58:43;;;;;;;3.42;2.22;;;18.60;99.90;;;;;;1915942;74;21099;-81
2023/06/24 03:01:38;;;;;;;4.40;2.35;;;18.50;99.90;;;;;;1906775;74;21160;-82
2023/06/24 03:07:10;;;;;;;4.08;2.30;;;18.40;99.90;;;;;;1958597;72;22221;-82
2023/06/24 03:15:28;;;;;;;2.47;2.00;;;18.50;99.90;;;;;;1947832;72;22661;-82
2023/06/24 03:21:00;;;;;;;2.90;2.12;;;18.50;99.90;;;;;;1942634;72;22243;-84
2023/06/24 03:26:35;;;;;;;2.45;2.08;;;18.50;99.90;;;;;;1945278;72;22171;-83
2023/06/24 03:32:11;;;;;;;4.22;2.20;;;18.40;99.90;;;;;;1940267;72;22255;-82
2023/06/24 03:37:49;;;;;;;3.67;2.45;;;18.40;99.90;;;;;;1949070;72;22582;-82
2023/06/24 03:40:41;;;;;;;2.33;2.00;;;18.40;99.90;;;;;;1960434;72;21214;-82
2023/06/24 03:46:23;;;;;;;3.72;2.20;;;18.30;99.90;;;;;;1954445;72;22272;-82
2023/06/24 03:49:15;;;;;;;3.10;2.72;;;18.30;99.90;;;;;;1930591;73;21137;-82
2023/06/24 03:52:08;;;;;;;5.00;2.65;;;18.30;99.90;;;;;;1917320;73;21047;-82
2023/06/24 03:55:04;;;;;;;3.40;2.50;;;18.10;99.90;;;;;;1931196;73;21132;-82
2023/06/24 04:00:36;;;;;;;3.20;2.40;;;18.10;99.90;;;;;;1946562;72;22177;-82
2023/06/24 04:03:28;;;;;;;3.58;2.70;;;18.10;99.90;;;;;;1882815;75;21257;-83
2023/06/24 04:06:20;;;;;;;3.95;2.90;;;18.10;99.90;;;;;;1897333;74;21184;-83
2023/06/24 04:11:50;;;;;;;7.55;3.77;;;18.10;99.90;;;;;;1941228;72;22182;-82
2023/06/24 04:14:42;;;;;;;4.22;3.45;;;18.10;99.90;;;;;;1897763;75;21196;-83
2023/06/24 04:17:33;;;;;;;3.87;3.00;;;18.10;99.90;;;;;;1876200;75;21146;-82
2023/06/24 04:20:25;;;;;;;4.58;2.80;;;18.10;99.90;;;;;;1886547;74;21147;-82
2023/06/24 04:23:16;;;;;;;3.15;2.70;;;18.00;99.90;;;;;;1891093;75;21176;-82
2023/06/24 04:26:07;;;;;;;3.22;2.70;;;18.00;99.90;;;;;;1891702;75;21122;-82
2023/06/24 04:28:59;;;;;;;4.75;2.67;;;18.00;99.90;;;;;;1873274;75;21139;-82
2023/06/24 04:31:50;;;;;;;4.00;2.83;;;18.10;99.90;;;;;;1891168;75;21047;-82
2023/06/24 04:34:42;;;;;;;3.25;2.83;;;18.20;99.90;;;;;;1882432;75;21189;-82
2023/06/24 04:37:34;;;;;;;3.08;2.72;;;18.20;99.90;;;;;;1896839;75;21164;-82
2023/06/24 04:40:25;;;;;;;3.30;2.35;;;18.30;99.90;;;;;;1886324;75;21100;-83
2023/06/24 04:45:57;;;;;;;2.92;2.62;;;18.50;99.90;;;;;;1926210;72;22752;-82
2023/06/24 04:51:28;;;;;;;5.83;2.98;;;18.40;99.90;;;;;;1941327;72;22598;-82
2023/06/24 04:57:00;;;;;;;4.20;2.77;;;18.30;99.90;;;;;;1930677;72;22260;-81
2023/06/24 05:02:30;;;;;;;3.27;2.67;;;18.40;99.90;;;;;;1944002;72;22337;-82
2023/06/24 05:05:22;;;;;;;3.17;2.77;;;18.40;99.90;;;;;;1905087;74;21242;-83
2023/06/24 05:08:15;;;;;;;4.72;2.67;;;18.40;99.90;;;;;;1910806;74;21039;-83
2023/06/24 05:11:08;;;;;;;3.22;2.67;;;18.40;99.90;;;;;;1909152;74;21442;-83
2023/06/24 05:16:38;;;;;;;3.72;2.80;;;18.50;99.90;;;;;;1944979;72;22181;-81
2023/06/24 05:19:30;;;;;;;4.55;2.60;;;18.50;99.90;;;;;;1905089;74;21089;-81
2023/06/24 05:25:01;;;;;;;5.28;3.10;;;18.70;99.90;;;;;;1926418;72;22631;-82
2023/06/24 05:30:31;;;;;;;3.77;2.50;;;18.80;99.90;;;;;;1939252;72;22587;-81
2023/06/24 05:33:22;;;;;;;3.35;3.05;;;18.90;99.90;;;;;;1907990;74;21087;-82
2023/06/24 05:36:13;;;;;;;3.62;2.90;;;18.90;99.90;;;;;;1921912;74;21080;-82
2023/06/24 05:39:07;;;;;;;3.75;3.02;;;19.00;99.90;;;;;;1917291;74;21019;-83
2023/06/24 05:44:38;;;;;;;3.92;2.98;;;19.10;99.90;;;;;;1952889;72;22697;-81
2023/06/24 05:47:30;;;;;;;4.12;3.15;;;19.10;99.90;;;;;;1927652;73;21121;-81
2023/06/24 05:50:25;;;;;;;3.25;2.77;;;19.10;99.90;;;;;;1922512;73;21107;-83
2023/06/24 05:53:20;;;;;;;5.12;3.00;;;19.10;99.90;;;;;;1917134;73;21114;-83
2023/06/24 05:56:11;;;;;;;4.00;2.98;;;19.10;99.90;;;;;;1923792;73;21139;-83
2023/06/24 05:59:03;;;;;;;7.20;3.20;;;19.10;99.90;;;;;;1917549;73;21205;-82
2023/06/24 06:01:54;;;;;;;3.08;2.77;;;19.00;99.90;;;;;;1920773;73;21183;-85
2023/06/24 06:04:46;;;;;;;6.72;3.50;;;19.10;99.90;;;;;;1892145;75;21086;-84
2023/06/24 06:07:39;;;;;;;4.83;3.30;;;19.10;99.90;;;;;;1917805;73;21085;-84
2023/06/24 06:10:30;;;;;;;4.47;3.45;;;19.10;99.90;;;;;;1917749;73;21101;-84
2023/06/24 06:13:22;;;;;;;3.92;3.08;;;19.20;99.90;;;;;;1919101;73;21098;-83
2023/06/24 06:16:14;;;;;;;3.77;3.00;;;19.30;99.90;;;;;;1920340;73;21152;-83
2023/06/24 06:21:43;;;;;;;5.25;3.30;;;19.50;99.90;;;;;;1932271;72;22246;-83
2023/06/24 06:24:34;;;;;;;4.62;3.10;;;19.60;99.90;;;;;;1906016;75;21164;-83
2023/06/24 06:27:26;;;;;;;3.55;3.10;;;19.70;99.90;;;;;;1912769;74;21117;-83
2023/06/24 06:30:17;;;;;;;3.80;3.02;;;19.70;99.90;;;;;;1912584;75;21197;-84
2023/06/24 06:33:08;;;;;;;3.95;2.92;;;19.90;99.90;;;;;;1892418;75;21679;-83
2023/06/24 06:36:00;;;;;;;4.47;3.40;;;20.00;99.90;;;;;;1908023;74;21233;-83
2023/06/24 06:38:51;;;;;;;3.10;2.80;;;20.10;99.90;;;;;;1904560;75;21380;-83
2023/06/24 06:41:44;;;;;;;4.10;3.08;;;20.20;99.90;;;;;;1907613;74;21148;-84
2023/06/24 06:44:48;;;;;;;4.85;3.20;;;20.20;99.90;;;;;;1908383;75;21105;-83
2023/06/24 06:47:41;;;;;;;3.67;2.98;;;20.20;99.90;;;;;;1897028;75;21199;-83
2023/06/24 06:50:32;;;;;;;4.00;3.08;;;20.30;99.90;;;;;;1908736;75;21200;-84
2023/06/24 06:53:30;;;;;;;3.77;2.70;;;20.40;99.90;;;;;;1902908;75;21074;-84
2023/06/24 06:59:38;;;;;;;3.33;2.75;;;20.40;99.90;;;;;;1939350;72;22234;-85
2023/06/24 07:02:29;;;;;;;3.40;2.83;;;20.50;99.90;;;;;;1904791;75;21098;-85
2023/06/24 07:05:20;;;;;;;4.12;3.10;;;20.60;99.90;;;;;;1912195;75;21098;-85
2023/06/24 07:08:12;;;;;;;4.50;3.00;;;20.70;99.90;;;;;;1891341;75;21134;-85
2023/06/24 07:11:04;;;;;;;2.70;2.50;;;20.80;99.90;;;;;;1893988;75;21082;-85
2023/06/24 07:16:34;;;;;;;4.72;2.80;;;20.90;99.90;;;;;;1944689;72;22132;-83
2023/06/24 07:19:25;;;;;;;4.12;2.95;;;21.00;99.90;;;;;;1918041;73;21522;-85
2023/06/24 07:24:56;;;;;;;3.75;3.10;;;21.10;99.90;;;;;;1935917;72;22283;-84
2023/06/24 07:27:48;;;;;;;3.45;2.90;;;21.20;99.90;;;;;;1911135;74;21152;-84
2023/06/24 07:30:39;;;;;;;3.35;2.87;;;21.20;99.90;;;;;;1865135;76;21131;-85
2023/06/24 07:33:32;;;;;;;3.08;2.60;;;21.30;99.90;;;;;;1909729;75;21113;-86
2023/06/24 07:36:23;;;;;;;3.02;2.72;;;21.40;99.90;;;;;;1908325;74;21084;-85
2023/06/24 07:39:23;;;;;;;4.35;2.90;;;21.50;99.90;;;;;;1905733;75;21557;-84
2023/06/24 07:42:18;;;;;;;4.25;3.00;;;21.60;99.90;;;;;;1891730;75;21163;-84
2023/06/24 07:45:25;;;;;;;3.25;2.90;;;21.60;99.90;;;;;;1903401;75;21105;-82
2023/06/24 07:50:55;;;;;;;5.58;2.80;;;21.70;99.90;;;;;;1932516;72;22114;-85
2023/06/24 07:53:47;;;;;;;3.92;3.30;;;21.90;99.90;;;;;;1897463;75;21302;-84
2023/06/24 07:59:18;;;;;;;4.20;2.77;;;21.90;99.90;;;;;;1962068;72;22410;-82
2023/06/24 08:02:09;;;;;;;4.25;2.75;;;22.00;99.90;;;;;;1916559;75;21152;-82
2023/06/24 08:07:40;;;;;;;3.47;2.87;;;22.00;99.90;;;;;;1942635;73;22222;-82
2023/06/24 08:10:31;;;;;;;5.72;2.80;;;22.10;99.90;;;;;;1924958;73;21156;-84
2023/06/24 08:13:36;;;;;;;3.85;3.02;;;22.20;99.90;;;;;;1935362;73;21366;-84
2023/06/24 08:19:31;;;;;;;3.22;2.83;;;22.30;99.90;;;;;;1936456;72;22679;-83
2023/06/24 08:22:23;;;;;;;4.03;2.87;;;22.30;99.90;;;;;;1899296;75;21125;-83
2023/06/24 08:25:17;;;;;;;3.12;2.60;;;22.30;99.90;;;;;;1906145;75;21086;-84
2023/06/24 08:28:16;;;;;;;3.58;2.62;;;22.30;99.90;;;;;;1823307;78;21141;-82
2023/06/24 08:31:11;;;;;;;3.20;2.60;;;22.40;99.90;;;;;;1899792;75;21095;-83
2023/06/24 08:34:02;;;;;;;3.37;2.65;;;22.50;99.90;;;;;;1902819;75;21106;-83
2023/06/24 08:39:39;;;;;;;3.60;3.30;;;22.60;99.90;;;;;;1941891;72;22166;-84
2023/06/24 08:42:30;;;;;;;4.25;3.02;;;22.60;99.90;;;;;;1898096;75;21175;-83
2023/06/24 08:48:03;;;;;;;2.70;2.50;;;22.60;99.90;;;;;;1941008;72;22217;-84
2023/06/24 08:50:59;;;;;;;3.22;2.92;;;22.60;99.90;;;;;;1900935;75;21148;-84
2023/06/24 08:53:56;;;;;;;3.10;2.80;;;22.60;99.90;;;;;;1905201;75;21080;-84
2023/06/24 08:56:51;;;;;;;4.20;2.72;;;22.60;99.90;;;;;;1899316;75;21109;-84
2023/06/24 08:59:47;;;;;;;3.60;2.87;;;22.60;99.90;;;;;;1899630;75;22378;-83
2023/06/24 09:02:42;;;;;;;4.33;3.20;;;22.70;99.90;;;;;;1896153;75;21127;-83
2023/06/24 09:05:51;;;;;;;3.12;2.83;;;22.70;99.90;;;;;;1905084;75;21102;-83
2023/06/24 09:08:45;;;;;;;3.60;2.70;;;22.60;99.90;;;;;;1898120;75;21169;-83
2023/06/24 09:11:42;;;;;;;4.58;3.05;;;22.60;99.90;;;;;;1886208;75;21113;-83
2023/06/24 09:14:34;;;;;;;3.80;2.98;;;22.70;99.90;;;;;;1907323;75;21135;-84
2023/06/24 09:17:25;;;;;;;3.27;2.87;;;22.70;99.90;;;;;;1901317;75;21202;-84
2023/06/24 09:25:41;;;;;;;4.22;2.95;;;23.00;99.90;;;;;;1920829;72;22289;-84
2023/06/24 09:31:24;;;;;;;3.47;3.05;;;23.20;99.90;;;;;;1928493;72;22294;-84
2023/06/24 09:34:16;;;;;;;3.70;2.83;;;23.30;99.90;;;;;;1908636;75;21110;-84
2023/06/24 09:37:07;;;;;;;5.05;2.55;;;23.30;99.90;;;;;;1887893;75;21545;-84
2023/06/24 09:42:38;;;;;;;3.62;2.80;;;23.40;99.90;;;;;;1943350;72;22161;-86
2023/06/24 09:45:30;;;;;;;3.22;2.83;;;23.50;99.90;;;;;;1924797;73;21526;-85
2023/06/24 09:51:23;;;;;;;3.12;2.83;;;23.60;99.90;;;;;;1953383;72;22326;-81
2023/06/24 09:56:55;;;;;;;3.47;2.30;;;23.60;99.90;;;;;;1953325;72;22150;-81
2023/06/24 09:59:47;;;;;;;3.10;2.80;;;23.70;99.90;;;;;;1917973;73;21087;-82
2023/06/24 10:02:46;;;;;;;4.03;3.10;;;23.90;99.90;;;;;;1915896;73;21146;-80
2023/06/24 10:08:19;;;;;;;3.50;2.60;;;23.90;99.90;;;;;;1941436;72;22253;-79
2023/06/24 10:11:12;;;;;;;3.25;2.70;;;24.00;99.90;;;;;;1883753;75;21131;-80
2023/06/24 10:14:04;;;;;;;3.40;2.85;;;24.10;99.90;;;;;;1877333;75;21138;-81
2023/06/24 10:19:39;;;;;;;4.17;2.60;;;24.30;99.90;;;;;;1940673;72;22192;-81
2023/06/24 10:22:32;;;;;;;2.95;2.65;;;24.30;99.90;;;;;;1915010;74;21054;-81
2023/06/24 10:25:24;;;;;;;3.65;2.50;;;24.40;99.90;;;;;;1910192;74;21109;-81
2023/06/24 10:30:57;;;;;;;2.87;2.67;;;24.40;99.90;;;;;;1945690;72;22636;-81
2023/06/24 10:36:34;;;;;;;4.45;3.10;;;24.70;99.90;;;;;;1943689;72;27979;-81
2023/06/24 10:39:40;;;;;;;3.35;3.05;;;25.00;99.90;;;;;;1915909;74;21110;-80
2023/06/24 10:42:41;;;;;;;3.52;2.92;;;25.10;99.90;;;;;;1905578;74;21091;-81
2023/06/24 10:45:36;;;;;;;3.05;2.75;;;25.10;99.90;;;;;;1927184;74;21090;-81
2023/06/24 10:48:28;;;;;;;4.97;2.92;;;25.20;99.90;;;;;;1904208;74;21220;-80
2023/06/24 10:51:19;;;;;;;2.90;2.62;;;25.30;99.90;;;;;;1905145;74;21119;-81
2023/06/24 10:56:55;;;;;;;3.80;2.58;;;25.20;99.90;;;;;;1935833;72;22281;-81
2023/06/24 10:59:50;;;;;;;5.00;2.50;;;25.20;99.90;;;;;;1885694;75;21770;-81
2023/06/24 11:05:25;;;;;;;4.45;2.50;;;25.40;99.90;;;;;;1927899;72;22319;-81
2023/06/24 11:10:55;;;;;;;3.72;2.45;;;25.50;99.90;;;;;;1942299;72;22176;-81
2023/06/24 11:13:50;;;;;;;6.37;2.67;;;25.60;99.90;;;;;;1903833;74;21071;-81
2023/06/24 11:19:27;;;;;;;4.35;2.58;;;26.00;99.90;;;;;;1939198;72;22162;-81
2023/06/24 11:24:59;;;;;;;2.90;2.50;;;26.10;99.90;;;;;;1942904;72;22271;-80
2023/06/24 11:27:53;;;;;;;3.47;2.67;;;26.10;99.90;;;;;;1916641;73;21117;-81
2023/06/24 11:30:48;;;;;;;3.52;2.70;;;26.00;99.90;;;;;;1927770;73;21083;-81
2023/06/24 11:33:47;;;;;;;3.17;2.87;;;26.00;99.90;;;;;;1919192;73;21093;-81
2023/06/24 11:36:41;;;;;;;3.00;2.65;;;26.00;99.90;;;;;;1925418;73;21109;-81
2023/06/24 11:39:40;;;;;;;2.75;2.45;;;26.10;99.90;;;;;;1930287;73;21094;-80
2023/06/24 11:42:44;;;;;;;3.10;2.80;;;26.00;99.90;;;;;;1916506;73;21125;-80
2023/06/24 11:45:40;;;;;;;3.17;2.80;;;26.10;99.90;;;;;;1933178;73;21088;-80
2023/06/24 11:48:32;;;;;;;3.98;2.92;;;26.10;99.90;;;;;;1923099;73;21634;-81
2023/06/24 11:51:30;;;;;;;3.08;2.77;;;26.30;99.90;;;;;;1916303;75;21090;-80
2023/06/24 11:54:25;;;;;;;2.67;2.40;;;26.30;99.90;;;;;;1916946;73;21079;-81
2023/06/24 11:57:16;;;;;;;4.22;2.47;;;26.40;99.90;;;;;;1916126;75;21055;-81
2023/06/24 12:00:14;;;;;;;3.10;2.80;;;26.40;99.90;;;;;;1916153;75;21067;-81
2023/06/24 12:03:12;;;;;;;3.15;2.85;;;26.50;99.90;;;;;;1920698;73;21116;-81
2023/06/24 12:06:09;;;;;;;3.20;2.90;;;26.50;99.90;;;;;;1916730;75;21102;-82
2023/06/24 12:09:10;;;;;;;3.83;2.92;;;26.60;99.90;;;;;;1916300;75;21624;-81
2023/06/24 12:12:11;;;;;;;2.85;2.47;;;26.90;99.90;;;;;;1927562;73;21119;-81
2023/06/24 12:15:04;;;;;;;4.37;2.85;;;26.90;99.90;;;;;;1916466;75;21114;-80
2023/06/24 12:17:57;;;;;;;3.08;2.80;;;27.00;99.90;;;;;;1916735;75;21071;-81
2023/06/24 12:20:48;;;;;;;3.12;2.83;;;27.00;99.90;;;;;;1938947;73;21103;-81
2023/06/24 12:23:40;;;;;;;2.90;2.70;;;27.00;99.90;;;;;;1916612;75;21121;-80
2023/06/24 12:26:31;;;;;;;3.55;2.95;;;27.10;99.90;;;;;;1924606;73;21216;-80
2023/06/24 12:29:23;;;;;;;3.22;2.72;;;27.20;99.90;;;;;;1924140;74;21125;-80
2023/06/24 12:32:14;;;;;;;3.47;3.12;;;27.50;99.90;;;;;;1913351;75;21635;-81
2023/06/24 12:35:08;;;;;;;4.28;3.10;;;27.60;99.90;;;;;;1913312;75;21559;-81
2023/06/24 12:38:00;;;;;;;3.50;3.12;;;27.60;99.90;;;;;;1927498;74;21156;-81
2023/06/24 12:40:54;;;;;;;3.85;3.33;;;27.60;99.90;;;;;;1916576;74;21093;-81
2023/06/24 12:44:00;;;;;;;4.28;3.08;;;27.60;99.90;;;;;;1912615;73;21080;-81
2023/06/24 12:46:58;;;;;;;3.83;2.90;;;27.70;99.90;;;;;;1915991;74;21114;-81
2023/06/24 12:49:54;;;;;;;3.90;3.20;;;27.70;99.90;;;;;;1914383;74;21102;-81
2023/06/24 12:52:47;;;;;;;4.45;3.20;;;27.70;99.90;;;;;;1922077;74;21516;-81
2023/06/24 12:55:43;;;;;;;3.92;3.33;;;27.60;99.90;;;;;;1927006;74;21445;-81
2023/06/24 12:58:34;;;;;;;3.20;2.90;;;27.60;99.90;;;;;;1915376;74;21106;-80
2023/06/24 13:01:31;;;;;;;4.40;3.10;;;27.60;99.90;;;;;;1935377;74;21106;-81
2023/06/24 13:04:24;;;;;;;3.58;2.90;;;27.70;99.90;;;;;;1935061;74;21158;-81
2023/06/24 13:07:16;;;;;;;3.22;2.92;;;27.90;99.90;;;;;;1930104;74;21595;-80
2023/06/24 13:10:10;;;;;;;3.90;3.42;;;27.90;99.90;;;;;;1914485;74;21099;-80
2023/06/24 13:13:02;;;;;;;3.58;3.05;;;28.00;99.90;;;;;;1941689;74;21078;-80
2023/06/24 13:15:53;;;;;;;3.40;3.10;;;28.10;99.90;;;;;;1923324;74;21122;-81
2023/06/24 13:18:58;;;;;;;3.83;3.00;;;28.20;99.90;;;;;;1912874;75;21654;-81
2023/06/24 13:21:50;;;;;;;3.42;3.12;;;28.20;99.90;;;;;;1914150;75;21106;-81
2023/06/24 13:24:41;;;;;;;4.42;2.90;;;28.30;99.90;;;;;;1913798;75;21057;-81
2023/06/24 13:27:32;;;;;;;3.00;2.80;;;28.20;99.90;;;;;;1913198;75;21161;-81
2023/06/24 13:30:24;;;;;;;3.55;2.87;;;28.20;99.90;;;;;;1914702;75;21621;-81
2023/06/24 13:33:16;;;;;;;3.87;3.05;;;28.30;99.90;;;;;;1925964;74;21134;-81
2023/06/24 13:36:16;;;;;;;3.20;2.83;;;28.50;99.90;;;;;;1939117;74;21058;-81
2023/06/24 13:39:11;;;;;;;4.75;2.98;;;28.60;99.90;;;;;;1935591;74;21137;-81
2023/06/24 13:42:05;;;;;;;5.83;3.10;;;28.70;99.90;;;;;;1935306;74;21600;-81
2023/06/24 13:44:56;;;;;;;3.00;2.60;;;28.90;99.90;;;;;;1913104;74;21521;-81
2023/06/24 13:47:47;;;;;;;4.78;2.50;;;29.20;99.90;;;;;;1926548;74;21156;-80
2023/06/24 13:50:39;;;;;;;3.02;2.83;;;29.40;99.30;;;;;;1914785;75;21181;-81
2023/06/24 13:53:30;;;;;;;2.58;2.37;;;29.60;98.80;;;;;;1928672;74;21506;-81
2023/06/24 13:56:22;;;;;;;2.90;2.60;;;29.60;97.50;;;;;;1912905;74;21093;-80
2023/06/24 13:59:14;;;;;;;3.10;2.80;;;29.80;96.00;;;;;;1920180;74;21102;-81
2023/06/24 14:02:07;;;;;;;3.70;2.83;;;30.10;95.80;;;;;;1916485;74;21108;-81
2023/06/24 14:04:59;;;;;;;3.42;2.87;;;30.40;94.80;;;;;;1915716;74;21160;-81
2023/06/24 14:07:50;;;;;;;2.65;2.45;;;30.80;93.40;;;;;;1927076;74;21121;-81
2023/06/24 14:10:43;;;;;;;3.08;2.77;;;30.90;91.50;;;;;;1915673;75;21107;-81
2023/06/24 14:13:36;;;;;;;3.05;2.72;;;31.00;91.20;;;;;;1915487;74;21096;-81
2023/06/24 14:16:27;;;;;;;2.62;2.33;;;31.00;90.40;;;;;;1914649;75;21056;-79
2023/06/24 14:19:20;;;;;;;3.05;2.75;;;31.40;88.20;;;;;;1925297;74;21143;-80
2023/06/24 14:22:12;;;;;;;2.87;2.65;;;31.30;86.30;;;;;;1923843;74;21176;-80
2023/06/24 14:25:03;;;;;;;4.10;2.85;;;31.30;85.00;;;;;;1924411;74;21150;-79
2023/06/24 14:27:55;;;;;;;3.12;2.85;;;31.40;83.40;;;;;;1924698;74;21680;-79
2023/06/24 14:30:46;;;;;;;2.87;2.60;;;32.00;83.50;;;;;;1926327;74;21090;-80
2023/06/24 14:33:38;;;;;;;3.25;2.60;;;32.40;81.50;;;;;;1917328;74;21110;-79
2023/06/24 14:36:29;;;;;;;2.83;2.58;;;32.70;80.00;;;;;;1915758;75;21091;-80
2023/06/24 14:39:26;;;;;;;3.25;2.55;;;32.80;77.80;;;;;;1915083;75;21097;-80
2023/06/24 14:42:19;;;;;;;3.75;2.87;;;32.50;75.70;;;;;;1914235;75;21110;-80
2023/06/24 14:45:11;;;;;;;2.92;2.45;;;32.60;76.80;;;;;;1912581;75;21113;-81
2023/06/24 14:48:02;;;;;;;3.40;3.10;;;32.90;75.00;;;;;;1912564;75;21112;-80
2023/06/24 14:51:19;;;;;;;3.12;2.77;;;33.00;72.10;;;;;;1915124;75;21106;-80
2023/06/24 14:54:16;;;;;;;4.12;2.55;;;32.90;71.70;;;;;;1915403;75;21103;-80
2023/06/24 14:57:09;;;;;;;2.92;2.72;;;33.20;72.00;;;;;;1915094;75;21106;-80
2023/06/24 15:00:00;;;;;;;2.70;2.50;;;33.20;70.40;;;;;;1927078;74;21195;-80
2023/06/24 15:02:52;;;;;;;3.75;2.80;;;33.40;69.20;;;;;;1938448;74;21102;-80
2023/06/24 15:05:44;;;;;;;3.40;3.10;;;33.70;69.60;;;;;;1913663;75;21485;-80
2023/06/24 15:08:35;;;;;;;3.00;2.62;;;33.90;68.20;;;;;;1934058;74;21148;-80
2023/06/24 15:11:40;;;;;;;3.77;3.00;;;33.60;68.00;;;;;;1913505;75;21078;-80
2023/06/24 15:14:31;;;;;;;4.08;2.67;;;33.70;67.10;;;;;;1936180;74;21156;-80
2023/06/24 15:17:23;;;;;;;3.55;2.58;;;34.00;66.50;;;;;;1934988;74;21124;-79
2023/06/24 15:20:16;;;;;;;3.20;2.90;;;34.00;66.40;;;;;;1914822;75;21103;-80
2023/06/24 15:23:15;;;;;;;3.98;2.55;;;34.20;65.10;;;;;;1915036;75;21565;-79
2023/06/24 15:26:07;;;;;;;3.02;2.22;;;33.80;63.90;;;;;;1914446;75;21217;-80
2023/06/24 15:29:03;;;;;;;2.65;2.37;;;34.30;64.00;;;;;;1935440;74;21090;-80
2023/06/24 15:31:57;;;;;;;4.35;2.83;;;34.70;63.30;;;;;;1913299;75;21163;-79
2023/06/24 15:34:48;;;;;;;3.10;2.77;;;34.30;62.80;;;;;;1914213;75;21153;-80
2023/06/24 15:37:40;;;;;;;2.85;2.45;;;34.80;62.30;;;;;;1914143;75;21208;-79
2023/06/24 15:40:33;;;;;;;2.72;2.40;;;34.90;61.30;;;;;;1918354;74;21127;-80
2023/06/24 15:43:28;;;;;;;2.85;2.55;;;34.90;61.00;;;;;;1924219;74;21159;-80
2023/06/24 15:46:22;;;;;;;3.15;2.83;;;35.00;61.00;;;;;;1929868;74;21617;-80
2023/06/24 15:49:15;;;;;;;3.22;2.83;;;34.70;60.30;;;;;;1914345;75;21543;-80
2023/06/24 15:52:07;;;;;;;3.90;3.12;;;35.20;60.50;;;;;;1936258;74;21235;-80
2023/06/24 15:54:59;;;;;;;2.50;2.30;;;35.50;60.00;;;;;;1938420;74;21130;-79
2023/06/24 15:57:50;;;;;;;5.17;2.87;;;35.60;59.30;;;;;;1926993;74;21131;-81
2023/06/24 16:00:42;;;;;;;3.08;2.60;;;35.60;59.40;;;;;;1927493;74;21105;-80
2023/06/24 16:03:33;;;;;;;4.40;2.70;;;35.10;58.70;;;;;;1937389;74;21228;-79
2023/06/24 16:06:25;;;;;;;3.65;2.60;;;34.80;58.60;;;;;;1914146;75;21135;-80
2023/06/24 16:09:16;;;;;;;3.20;2.90;;;34.90;59.60;;;;;;1913281;75;21208;-80
2023/06/24 16:12:08;;;;;;;3.42;2.72;;;35.00;59.00;;;;;;1914533;75;21055;-80
2023/06/24 16:15:00;;;;;;;4.60;2.83;;;35.40;58.40;;;;;;1914462;75;21091;-80
2023/06/24 16:17:51;;;;;;;3.72;2.80;;;35.60;57.70;;;;;;1936466;74;21507;-80
2023/06/24 16:20:42;;;;;;;2.95;2.70;;;35.60;57.60;;;;;;1915313;75;21526;-80
2023/06/24 16:23:33;;;;;;;2.67;2.47;;;36.00;57.70;;;;;;1916145;75;21098;-80
2023/06/24 16:26:24;;;;;;;2.90;2.52;;;35.60;58.00;;;;;;1914480;75;21523;-80
2023/06/24 16:29:18;;;;;;;4.17;2.70;;;35.60;57.80;;;;;;1926863;74;21358;-81
2023/06/24 16:32:09;;;;;;;4.10;2.87;;;35.80;57.40;;;;;;1909373;74;21182;-80
2023/06/24 16:35:01;;;;;;;3.05;2.85;;;35.50;57.60;;;;;;1911868;74;21131;-79
2023/06/24 16:40:33;;;;;;;3.02;2.50;;;35.80;58.00;;;;;;1937085;72;22461;-78
2023/06/24 16:43:25;;;;;;;2.98;2.77;;;36.00;57.10;;;;;;1894407;75;21665;-78
2023/06/24 16:48:58;;;;;;;3.37;3.08;;;36.10;56.50;;;;;;1944861;72;22587;-79
2023/06/24 16:54:29;;;;;;;3.25;2.67;;;36.30;55.80;;;;;;1941738;72;22294;-78
2023/06/24 16:57:20;;;;;;;2.98;2.67;;;36.40;55.90;;;;;;1924614;73;21176;-79
2023/06/24 17:00:14;;;;;;;3.50;3.20;;;35.80;56.50;;;;;;1921839;73;21194;-79
2023/06/24 17:03:05;;;;;;;5.58;2.98;;;36.20;56.80;;;;;;1920681;73;21615;-80
2023/06/24 17:05:59;;;;;;;3.22;2.92;;;36.30;56.50;;;;;;1930764;73;21098;-79
2023/06/24 17:08:50;;;;;;;3.65;3.08;;;36.30;56.30;;;;;;1941905;73;21578;-79
2023/06/24 17:14:21;;;;;;;3.58;2.65;;;35.80;57.30;;;;;;1934675;72;22231;-79
2023/06/24 17:19:50;;;;;;;3.10;2.58;;;35.90;56.90;;;;;;1925008;72;22178;-79
2023/06/24 17:22:42;;;;;;;3.40;3.00;;;35.40;57.40;;;;;;1892246;75;21243;-80
2023/06/24 17:25:33;;;;;;;3.90;3.00;;;35.50;57.30;;;;;;1896229;75;21122;-80
2023/06/24 17:28:25;;;;;;;3.37;2.90;;;35.60;57.50;;;;;;1891317;75;21131;-80
2023/06/24 17:31:18;;;;;;;5.33;3.20;;;35.20;57.90;;;;;;1890120;75;21054;-80
2023/06/24 17:34:09;;;;;;;4.75;3.00;;;34.40;58.50;;;;;;1890631;75;21106;-79
2023/06/24 17:37:01;;;;;;;4.25;2.65;;;33.80;59.60;;;;;;1904267;75;21134;-79
2023/06/24 17:39:52;;;;;;;4.03;3.12;;;33.70;60.10;;;;;;1895820;75;21331;-79
2023/06/24 17:45:24;;;;;;;3.00;2.70;;;33.00;60.80;;;;;;1932127;72;22311;-79
2023/06/24 17:48:17;;;;;;;3.85;2.90;;;32.60;62.10;;;;;;1883333;75;21157;-79
2023/06/24 17:51:09;;;;;;;3.35;3.02;;;32.50;61.80;;;;;;1870538;76;21094;-80
2023/06/24 17:54:01;;;;;;;3.85;3.22;;;32.20;62.90;;;;;;1898230;75;21138;-79
2023/06/24 17:56:54;;;;;;;3.85;3.33;;;32.30;63.10;;;;;;1896509;75;21090;-79
2023/06/24 17:59:45;;;;;;;3.30;3.00;;;32.30;63.20;;;;;;1902798;75;21601;-80
2023/06/24 18:02:37;;;;;;;6.60;3.00;;;32.10;62.90;;;;;;1907465;75;21179;-80